createdAt,value
2022-10-25T00:01:26.265Z,2.70
2022-10-25T00:03:30.682Z,4.00
2022-10-25T00:05:33.725Z,5.80
2022-10-25T00:07:36.741Z,3.60
2022-10-25T00:09:39.678Z,2.50
2022-10-25T00:11:43.334Z,2.00
2022-10-25T00:13:46.354Z,3.80
2022-10-25T00:15:49.588Z,2.90
2022-10-25T00:17:52.871Z,4.50
2022-10-25T00:19:57.203Z,3.57
2022-10-25T00:22:00.547Z,3.87
2022-10-25T00:24:04.787Z,2.90
2022-10-25T00:26:09.279Z,8.50
2022-10-25T00:28:12.489Z,18.53
2022-10-25T00:30:16.045Z,8.03
2022-10-25T00:32:19.049Z,26.53
2022-10-25T00:34:22.106Z,6.03
2022-10-25T00:36:27.784Z,14.47
2022-10-25T00:38:31.591Z,4.20
2022-10-25T00:40:35.138Z,6.70
2022-10-25T00:42:38.171Z,12.20
2022-10-25T00:44:53.540Z,5.90
2022-10-25T00:46:56.738Z,17.40
2022-10-25T00:49:03.540Z,7.70
2022-10-25T00:51:07.076Z,5.43
2022-10-25T00:53:15.174Z,5.60
2022-10-25T00:55:20.429Z,5.27
2022-10-25T00:57:27.408Z,3.27
2022-10-25T00:59:30.857Z,4.60
2022-10-25T01:01:34.113Z,2.97
2022-10-25T01:03:38.481Z,6.60
2022-10-25T01:05:41.772Z,4.00
2022-10-25T01:07:45.750Z,4.17
2022-10-25T01:09:51.210Z,4.67
2022-10-25T01:11:54.461Z,3.23
2022-10-25T01:13:57.754Z,3.97
2022-10-25T01:16:06.989Z,2.83
2022-10-25T01:18:15.595Z,5.63
2022-10-25T01:20:48.755Z,5.67
2022-10-25T01:22:55.546Z,2.47
2022-10-25T01:25:25.396Z,6.17
2022-10-25T01:27:47.149Z,2.80
2022-10-25T01:30:14.592Z,3.83
2022-10-25T01:32:22.401Z,3.30
2022-10-25T01:34:28.002Z,2.97
2022-10-25T01:36:38.138Z,3.83
2022-10-25T01:38:45.901Z,3.33
2022-10-25T01:40:54.159Z,3.10
2022-10-25T01:43:02.264Z,2.90
2022-10-25T01:45:09.915Z,3.03
2022-10-25T01:47:15.122Z,7.97
2022-10-25T01:49:24.998Z,8.00
2022-10-25T01:51:29.020Z,11.97
2022-10-25T01:53:32.027Z,12.50
2022-10-25T01:55:41.393Z,5.87
2022-10-25T01:57:59.684Z,4.83
2022-10-25T02:00:09.299Z,5.60
2022-10-25T02:02:23.669Z,4.73
2022-10-25T02:04:34.920Z,5.97
2022-10-25T02:06:44.093Z,4.23
2022-10-25T02:08:49.634Z,2.23
2022-10-25T02:10:57.066Z,4.20
2022-10-25T02:13:03.953Z,3.83
2022-10-25T02:15:11.315Z,2.80
2022-10-25T02:17:18.781Z,2.60
2022-10-25T02:19:25.132Z,8.00
2022-10-25T02:21:32.024Z,2.60
2022-10-25T02:23:35.923Z,6.43
2022-10-25T02:25:41.919Z,5.43
2022-10-25T02:27:46.021Z,4.47
2022-10-25T02:29:49.685Z,7.10
2022-10-25T02:31:52.831Z,8.20
2022-10-25T02:33:56.106Z,8.87
2022-10-25T02:36:09.818Z,2.43
2022-10-25T02:38:14.102Z,5.27
2022-10-25T02:40:17.303Z,4.03
2022-10-25T02:46:15.515Z,4.10
2022-10-25T02:48:18.593Z,5.00
2022-10-25T02:50:21.557Z,4.30
2022-10-25T02:52:24.568Z,6.03
2022-10-25T02:54:28.977Z,3.20
2022-10-25T02:56:32.022Z,2.40
2022-10-25T02:58:38.080Z,3.07
2022-10-25T03:00:41.267Z,4.60
2022-10-25T03:02:44.634Z,6.17
2022-10-25T03:04:47.979Z,5.67
2022-10-25T03:06:50.982Z,4.43
2022-10-25T03:08:54.023Z,3.03
2022-10-25T03:10:58.532Z,10.00
2022-10-25T03:13:01.624Z,3.73
2022-10-25T03:15:05.027Z,4.40
2022-10-25T03:17:08.151Z,5.03
2022-10-25T03:19:11.191Z,3.30
2022-10-25T03:21:14.167Z,4.50
2022-10-25T03:23:17.779Z,4.90
2022-10-25T03:25:20.858Z,2.80
2022-10-25T03:27:25.245Z,3.17
2022-10-25T03:29:28.423Z,3.43
2022-10-25T03:31:31.414Z,3.57
2022-10-25T03:33:34.404Z,3.67
2022-10-25T03:35:37.592Z,4.50
2022-10-25T03:37:40.605Z,3.27
2022-10-25T03:39:43.571Z,2.80
2022-10-25T03:41:46.508Z,7.57
2022-10-25T03:43:50.885Z,5.40
2022-10-25T03:45:53.851Z,14.27
2022-10-25T03:47:56.869Z,9.60
2022-10-25T03:49:59.851Z,10.67
2022-10-25T03:52:05.084Z,6.30
2022-10-25T03:54:08.188Z,7.70
2022-10-25T03:56:11.214Z,9.43
2022-10-25T03:58:14.242Z,14.23
2022-10-25T04:00:18.875Z,13.77
2022-10-25T04:02:21.915Z,13.77
2022-10-25T04:04:24.943Z,8.87
2022-10-25T04:06:27.906Z,8.40
2022-10-25T04:08:30.917Z,7.53
2022-10-25T04:10:34.011Z,7.93
2022-10-25T04:12:37.037Z,14.97
2022-10-25T04:14:40.102Z,13.40
2022-10-25T04:16:44.493Z,26.27
2022-10-25T04:18:47.709Z,12.50
2022-10-25T04:20:50.659Z,7.37
2022-10-25T04:22:57.225Z,5.53
2022-10-25T04:25:00.236Z,9.93
2022-10-25T04:27:03.350Z,5.37
2022-10-25T04:29:13.538Z,7.70
2022-10-25T04:31:16.870Z,5.83
2022-10-25T04:33:21.710Z,8.43
2022-10-25T04:35:27.602Z,11.17
2022-10-25T04:37:30.693Z,6.03
2022-10-25T04:39:33.642Z,6.10
2022-10-25T04:41:36.670Z,13.90
2022-10-25T04:43:39.703Z,19.03
2022-10-25T04:45:42.749Z,29.37
2022-10-25T04:47:45.751Z,27.97
2022-10-25T04:49:50.082Z,19.47
2022-10-25T04:51:52.974Z,10.80
2022-10-25T04:53:56.194Z,9.47
2022-10-25T04:55:59.681Z,13.67
2022-10-25T04:58:02.628Z,10.60
2022-10-25T05:00:06.354Z,13.50
2022-10-25T05:02:09.356Z,16.03
2022-10-25T05:04:12.343Z,32.73
2022-10-25T05:06:19.083Z,18.33
2022-10-25T05:08:22.105Z,26.83
2022-10-25T05:10:25.205Z,28.20
2022-10-25T05:12:28.224Z,26.27
2022-10-25T05:14:31.215Z,22.00
2022-10-25T05:16:35.185Z,10.97
2022-10-25T05:18:38.193Z,9.07
2022-10-25T05:20:41.244Z,11.80
2022-10-25T05:22:46.017Z,7.00
2022-10-25T05:24:49.175Z,10.27
2022-10-25T05:26:52.175Z,17.50
2022-10-25T05:28:56.893Z,15.07
2022-10-25T05:31:04.221Z,14.13
2022-10-25T05:33:07.236Z,11.60
2022-10-25T05:35:10.375Z,24.93
2022-10-25T05:37:13.326Z,13.30
2022-10-25T05:39:17.765Z,20.33
2022-10-25T05:41:20.767Z,9.03
2022-10-25T05:43:23.958Z,16.77
2022-10-25T05:45:27.005Z,9.47
2022-10-25T05:47:30.041Z,14.80
2022-10-25T05:49:34.172Z,10.43
2022-10-25T05:51:37.683Z,15.80
2022-10-25T05:53:44.467Z,9.40
2022-10-25T05:55:48.789Z,15.43
2022-10-25T05:57:52.680Z,12.17
2022-10-25T05:59:55.892Z,6.00
2022-10-25T06:01:59.018Z,11.00
2022-10-25T06:04:02.080Z,6.13
2022-10-25T06:06:06.919Z,7.17
2022-10-25T06:08:09.916Z,11.33
2022-10-25T06:10:12.851Z,6.20
2022-10-25T06:12:17.197Z,6.50
2022-10-25T06:14:20.171Z,5.73
2022-10-25T06:16:23.576Z,3.53
2022-10-25T06:18:26.542Z,12.50
2022-10-25T06:20:29.671Z,4.43
2022-10-25T06:22:32.772Z,11.10
2022-10-25T06:24:35.855Z,8.20
2022-10-25T06:26:38.921Z,4.80
2022-10-25T06:28:43.623Z,4.27
2022-10-25T06:30:46.542Z,4.43
2022-10-25T06:32:49.847Z,7.50
2022-10-25T06:34:52.993Z,5.50
2022-10-25T06:36:55.916Z,7.00
2022-10-25T06:39:05.269Z,4.97
2022-10-25T06:41:13.723Z,5.60
2022-10-25T06:43:16.696Z,7.30
2022-10-25T06:45:21.023Z,6.97
2022-10-25T06:47:24.025Z,5.97
2022-10-25T06:49:30.580Z,5.00
2022-10-25T06:51:34.445Z,5.40
2022-10-25T06:53:37.872Z,7.37
2022-10-25T06:55:42.369Z,6.30
2022-10-25T06:57:45.437Z,4.90
2022-10-25T06:59:48.537Z,4.77
2022-10-25T07:01:53.456Z,4.70
2022-10-25T07:03:56.715Z,4.37
2022-10-25T07:06:00.650Z,8.00
2022-10-25T07:08:03.743Z,8.90
2022-10-25T07:10:07.367Z,8.20
2022-10-25T07:12:12.721Z,7.40
2022-10-25T07:14:16.081Z,6.50
2022-10-25T07:16:20.875Z,7.63
2022-10-25T07:18:25.367Z,6.10
2022-10-25T07:20:30.955Z,5.10
2022-10-25T07:22:34.143Z,4.87
2022-10-25T07:24:37.141Z,5.80
2022-10-25T07:26:41.787Z,4.63
2022-10-25T07:28:46.318Z,6.17
2022-10-25T07:30:49.550Z,5.07
2022-10-25T07:32:52.618Z,5.13
2022-10-25T07:37:00.983Z,6.40
2022-10-25T07:39:04.281Z,6.00
2022-10-25T07:41:07.778Z,7.70
2022-10-25T07:43:11.162Z,5.80
2022-10-25T07:45:16.231Z,10.67
2022-10-25T07:47:21.846Z,7.10
2022-10-25T07:49:24.974Z,7.20
2022-10-25T07:51:29.579Z,6.20
2022-10-25T07:53:32.618Z,5.67
2022-10-25T07:55:35.642Z,5.20
2022-10-25T07:57:38.797Z,7.23
2022-10-25T07:59:41.755Z,4.93
2022-10-25T08:01:44.813Z,6.43
2022-10-25T08:03:47.952Z,5.73
2022-10-25T08:05:50.957Z,5.83
2022-10-25T08:07:55.256Z,5.97
2022-10-25T08:09:58.262Z,5.53
2022-10-25T08:12:01.239Z,5.93
2022-10-25T08:14:04.276Z,5.90
2022-10-25T08:16:11.240Z,6.23
2022-10-25T08:18:14.231Z,8.37
2022-10-25T08:20:17.363Z,7.67
2022-10-25T08:22:20.406Z,9.73
2022-10-25T08:24:24.814Z,6.23
2022-10-25T08:26:30.145Z,10.80
2022-10-25T08:28:35.298Z,6.40
2022-10-25T08:30:38.278Z,7.23
2022-10-25T08:32:41.320Z,6.73
2022-10-25T08:34:44.365Z,8.47
2022-10-25T08:36:49.674Z,4.93
2022-10-25T08:38:52.689Z,5.90
2022-10-25T08:41:03.261Z,7.47
2022-10-25T08:43:11.175Z,5.83
2022-10-25T08:45:19.885Z,7.83
2022-10-25T08:47:27.110Z,7.53
2022-10-25T08:49:34.647Z,5.80
2022-10-25T08:51:39.842Z,6.83
2022-10-25T08:53:47.813Z,7.20
2022-10-25T08:56:15.264Z,4.50
2022-10-25T08:58:18.698Z,5.67
2022-10-25T09:00:24.204Z,5.87
2022-10-25T09:02:34.653Z,4.07
2022-10-25T09:04:37.823Z,8.00
2022-10-25T09:06:43.275Z,6.53
2022-10-25T09:08:59.622Z,7.13
2022-10-25T09:11:07.933Z,4.33
2022-10-25T09:13:19.286Z,3.90
2022-10-25T09:15:33.306Z,6.80
2022-10-25T09:17:43.039Z,5.80
2022-10-25T09:19:57.858Z,6.13
2022-10-25T09:22:02.290Z,4.40
2022-10-25T09:24:11.712Z,6.10
2022-10-25T09:26:19.265Z,3.93
2022-10-25T09:28:26.777Z,5.80
2022-10-25T09:30:31.745Z,3.90
2022-10-25T09:32:38.791Z,4.10
2022-10-25T09:34:41.912Z,6.00
2022-10-25T09:36:47.012Z,4.73
2022-10-25T09:38:53.219Z,5.07
2022-10-25T09:40:58.925Z,5.30
2022-10-25T09:45:24.142Z,7.20
2022-10-25T09:47:41.453Z,5.57
2022-10-25T09:49:52.097Z,5.37
2022-10-25T09:52:00.703Z,7.43
2022-10-25T09:54:11.941Z,7.67
2022-10-25T09:56:17.201Z,5.77
2022-10-25T09:58:22.165Z,5.90
2022-10-25T10:00:26.849Z,5.53
2022-10-25T10:02:29.876Z,4.40
2022-10-25T10:04:36.273Z,4.60
2022-10-25T10:06:40.920Z,10.50
2022-10-25T10:08:49.080Z,5.77
2022-10-25T10:10:57.398Z,5.73
2022-10-25T10:13:05.020Z,4.43
2022-10-25T10:15:14.145Z,2.90
2022-10-25T10:17:21.291Z,6.87
2022-10-25T10:19:29.936Z,4.67
2022-10-25T10:21:42.960Z,5.20
2022-10-25T10:23:50.703Z,4.47
2022-10-25T10:25:53.878Z,3.20
2022-10-25T10:27:58.186Z,3.40
2022-10-25T10:30:03.240Z,4.70
2022-10-25T10:32:10.180Z,5.57
2022-10-25T10:34:28.532Z,4.37
2022-10-25T10:36:33.584Z,4.67
2022-10-25T10:38:39.361Z,4.07
2022-10-25T10:40:44.001Z,3.83
2022-10-25T10:42:49.886Z,9.60
2022-10-25T10:45:16.614Z,3.23
2022-10-25T10:47:22.538Z,6.80
2022-10-25T10:49:36.143Z,3.67
2022-10-25T10:51:45.031Z,9.60
2022-10-25T10:53:48.456Z,4.13
2022-10-25T10:55:52.936Z,5.10
2022-10-25T10:57:57.377Z,8.10
2022-10-25T11:00:01.488Z,5.10
2022-10-25T11:02:24.117Z,6.50
2022-10-25T11:04:28.704Z,5.97
2022-10-25T11:06:33.254Z,5.70
2022-10-25T11:08:36.240Z,4.77
2022-10-25T11:10:40.224Z,6.33
2022-10-25T11:12:43.738Z,4.93
2022-10-25T11:14:46.840Z,4.40
2022-10-25T11:16:54.533Z,3.23
2022-10-25T11:19:10.134Z,7.67
2022-10-25T11:21:22.504Z,5.30
2022-10-25T11:23:28.914Z,5.73
2022-10-25T11:25:35.299Z,3.13
2022-10-25T11:27:48.156Z,3.80
2022-10-25T11:30:01.121Z,4.90
2022-10-25T11:32:18.736Z,4.03
2022-10-25T11:34:27.124Z,5.70
2022-10-25T11:36:52.676Z,12.20
2022-10-25T11:39:04.445Z,9.83
2022-10-25T11:41:17.369Z,7.37
2022-10-25T11:43:35.357Z,3.57
2022-10-25T11:45:42.610Z,3.50
2022-10-25T11:47:52.780Z,5.30
2022-10-25T11:50:02.351Z,4.43
2022-10-25T11:52:28.545Z,3.97
2022-10-25T11:54:36.786Z,3.60
2022-10-25T11:56:45.951Z,7.50
2022-10-25T11:58:55.259Z,3.67
2022-10-25T12:01:04.204Z,4.20
2022-10-25T12:03:20.533Z,5.83
2022-10-25T12:05:30.749Z,3.80
2022-10-25T12:07:38.606Z,3.33
2022-10-25T12:09:47.767Z,3.43
2022-10-25T12:12:01.675Z,5.77
2022-10-25T12:14:07.307Z,5.17
2022-10-25T12:16:12.323Z,3.97
2022-10-25T12:18:20.582Z,6.13
2022-10-25T12:20:27.892Z,3.77
2022-10-25T12:22:38.216Z,4.27
2022-10-25T12:24:46.466Z,7.00
2022-10-25T12:26:50.987Z,5.03
2022-10-25T12:28:54.123Z,7.47
2022-10-25T12:31:01.004Z,5.40
2022-10-25T12:33:12.205Z,4.13
2022-10-25T12:35:21.516Z,6.00
2022-10-25T12:37:29.849Z,4.63
2022-10-25T12:39:40.639Z,4.63
2022-10-25T12:41:45.080Z,4.13
2022-10-25T12:44:00.226Z,3.03
2022-10-25T12:46:37.003Z,4.23
2022-10-25T12:49:03.170Z,5.43
2022-10-25T12:51:19.122Z,5.37
2022-10-25T12:53:46.701Z,3.70
2022-10-25T12:55:57.047Z,4.03
2022-10-25T12:58:09.867Z,3.77
2022-10-25T13:00:14.842Z,4.57
2022-10-25T13:02:55.458Z,4.37
2022-10-25T13:05:24.236Z,5.93
2022-10-25T13:07:27.764Z,4.07
2022-10-25T13:09:33.070Z,2.90
2022-10-25T13:11:39.586Z,4.97
2022-10-25T13:13:48.790Z,7.73
2022-10-25T13:15:52.824Z,3.67
2022-10-25T13:18:05.726Z,5.10
2022-10-25T13:20:46.398Z,9.57
2022-10-25T13:22:52.396Z,8.73
2022-10-25T13:24:56.003Z,4.17
2022-10-25T13:27:22.125Z,5.67
2022-10-25T13:29:50.211Z,5.20
2022-10-25T13:31:59.880Z,6.67
2022-10-25T13:34:30.899Z,3.17
2022-10-25T13:36:47.491Z,6.93
2022-10-25T13:39:04.541Z,6.83
2022-10-25T13:41:13.482Z,5.07
2022-10-25T13:43:20.697Z,4.77
2022-10-25T13:45:33.393Z,4.37
2022-10-25T13:47:39.010Z,5.17
2022-10-25T13:49:43.824Z,3.50
2022-10-25T13:51:47.200Z,5.10
2022-10-25T13:53:52.680Z,4.17
2022-10-25T13:56:01.146Z,3.53
2022-10-25T13:58:57.423Z,3.47
2022-10-25T14:01:55.940Z,4.97
2022-10-25T14:04:08.712Z,7.40
2022-10-25T14:06:23.801Z,6.13
2022-10-25T14:08:28.940Z,5.87
2022-10-25T14:10:36.476Z,4.13
2022-10-25T14:12:41.089Z,5.20
2022-10-25T14:14:48.383Z,5.20
2022-10-25T14:17:10.450Z,7.47
2022-10-25T14:19:16.657Z,3.10
2022-10-25T14:21:20.552Z,3.60
2022-10-25T14:23:25.367Z,3.93
2022-10-25T14:25:34.301Z,5.10
2022-10-25T14:27:38.380Z,3.20
2022-10-25T14:29:41.362Z,4.50
2022-10-25T14:31:44.523Z,3.57
2022-10-25T14:33:53.636Z,4.27
2022-10-25T14:35:58.576Z,6.53
2022-10-25T14:38:01.972Z,4.93
2022-10-25T14:40:16.427Z,6.17
2022-10-25T14:42:19.545Z,5.23
2022-10-25T14:44:25.337Z,4.67
2022-10-25T14:46:30.269Z,4.60
2022-10-25T14:48:33.679Z,6.50
2022-10-25T14:50:39.915Z,4.27
2022-10-25T14:52:45.025Z,4.40
2022-10-25T14:54:54.750Z,5.40
2022-10-25T14:57:00.010Z,7.17
2022-10-25T14:59:04.238Z,3.20
2022-10-25T15:01:07.969Z,3.67
2022-10-25T15:03:12.662Z,6.57
2022-10-25T15:05:20.222Z,3.73
2022-10-25T15:07:29.094Z,7.87
2022-10-25T15:09:48.699Z,6.30
2022-10-25T15:12:06.828Z,5.80
2022-10-25T15:14:17.006Z,3.63
2022-10-25T15:16:32.341Z,4.67
2022-10-25T15:18:38.154Z,4.30
2022-10-25T15:20:41.576Z,4.80
2022-10-25T15:22:48.155Z,6.77
2022-10-25T15:24:51.440Z,5.03
2022-10-25T15:26:59.481Z,5.93
2022-10-25T15:29:02.952Z,4.67
2022-10-25T15:31:07.883Z,3.60
2022-10-25T15:33:14.638Z,5.00
2022-10-25T15:35:23.474Z,7.73
2022-10-25T15:37:27.789Z,11.10
2022-10-25T15:39:32.942Z,6.10
2022-10-25T15:41:36.553Z,4.93
2022-10-25T15:43:39.584Z,6.87
2022-10-25T15:45:42.897Z,6.40
2022-10-25T15:47:47.337Z,4.30
2022-10-25T15:49:52.676Z,3.93
2022-10-25T15:51:56.959Z,3.50
2022-10-25T15:54:00.220Z,5.00
2022-10-25T15:56:04.871Z,6.13
2022-10-25T15:58:09.898Z,6.00
2022-10-25T16:00:15.650Z,3.20
2022-10-25T16:02:22.026Z,6.30
2022-10-25T16:04:25.093Z,10.47
2022-10-25T16:06:28.069Z,3.13
2022-10-25T16:08:31.442Z,6.50
2022-10-25T16:10:34.825Z,3.60
2022-10-25T16:12:39.599Z,4.93
2022-10-25T16:14:42.700Z,6.20
2022-10-25T16:16:46.071Z,6.83
2022-10-25T16:18:49.094Z,3.80
2022-10-25T16:20:52.998Z,5.10
2022-10-25T16:22:56.783Z,6.63
2022-10-25T16:24:59.827Z,5.40
2022-10-25T16:27:02.975Z,4.07
2022-10-25T16:29:07.476Z,6.00
2022-10-25T16:31:10.430Z,5.33
2022-10-25T16:33:13.545Z,9.10
2022-10-25T16:35:18.787Z,5.33
2022-10-25T16:37:21.997Z,6.23
2022-10-25T16:39:25.052Z,5.90
2022-10-25T16:41:29.835Z,4.70
2022-10-25T16:43:33.820Z,3.30
2022-10-25T16:45:38.561Z,18.63
2022-10-25T16:47:41.685Z,22.20
2022-10-25T16:49:44.777Z,29.87
2022-10-25T16:51:48.782Z,13.00
2022-10-25T16:53:52.045Z,11.13
2022-10-25T16:55:56.105Z,13.77
2022-10-25T16:57:59.663Z,11.30
2022-10-25T17:00:02.763Z,8.97
2022-10-25T17:02:10.889Z,11.97
2022-10-25T17:04:14.498Z,8.97
2022-10-25T17:06:39.734Z,6.67
2022-10-25T17:08:40.922Z,6.57
2022-10-25T17:10:46.066Z,12.93
2022-10-25T17:12:50.665Z,6.80
2022-10-25T17:14:53.987Z,10.53
2022-10-25T17:17:02.232Z,7.47
2022-10-25T17:19:07.681Z,7.70
2022-10-25T17:21:12.745Z,7.50
2022-10-25T17:23:15.675Z,7.33
2022-10-25T17:25:18.694Z,8.33
2022-10-25T17:27:21.711Z,6.13
2022-10-25T17:29:24.738Z,10.70
2022-10-25T17:31:28.272Z,9.33
2022-10-25T17:33:32.726Z,7.57
2022-10-25T17:35:41.999Z,9.83
2022-10-25T17:37:47.130Z,10.13
2022-10-25T17:39:50.494Z,15.20
2022-10-25T17:41:53.503Z,17.00
2022-10-25T17:43:57.180Z,12.30
2022-10-25T17:46:01.244Z,9.03
2022-10-25T17:48:04.864Z,10.87
2022-10-25T17:50:08.405Z,7.67
2022-10-25T17:52:13.232Z,8.43
2022-10-25T17:54:16.968Z,8.90
2022-10-25T17:56:20.579Z,10.10
2022-10-25T17:58:24.050Z,11.27
2022-10-25T18:00:27.094Z,10.57
2022-10-25T18:02:30.232Z,13.23
2022-10-25T18:04:52.967Z,13.00
2022-10-25T18:06:56.524Z,13.83
2022-10-25T18:09:02.926Z,10.20
2022-10-25T18:11:09.746Z,15.73
2022-10-25T18:13:12.729Z,10.83
2022-10-25T18:15:15.971Z,11.47
2022-10-25T18:17:18.975Z,11.67
2022-10-25T18:19:22.709Z,10.33
2022-10-25T18:21:25.886Z,10.87
2022-10-25T18:23:28.885Z,11.13
2022-10-25T18:25:33.323Z,7.97
2022-10-25T18:27:36.393Z,22.33
2022-10-25T18:29:39.953Z,26.03
2022-10-25T18:31:42.967Z,15.93
2022-10-25T18:33:46.237Z,10.90
2022-10-25T18:35:49.320Z,16.07
2022-10-25T18:37:52.402Z,22.57
2022-10-25T18:39:55.529Z,24.07
2022-10-25T18:41:59.958Z,23.90
2022-10-25T18:44:03.482Z,19.63
2022-10-25T18:46:06.820Z,21.70
2022-10-25T18:48:09.847Z,18.60
2022-10-25T18:50:12.876Z,18.27
2022-10-25T18:52:15.964Z,19.03
2022-10-25T18:54:19.468Z,13.03
2022-10-25T18:56:23.791Z,16.43
2022-10-25T18:58:28.239Z,10.63
2022-10-25T19:00:31.489Z,16.47
2022-10-25T19:02:37.809Z,17.13
2022-10-25T19:04:44.452Z,14.80
2022-10-25T19:06:47.716Z,13.87
2022-10-25T19:08:50.769Z,15.53
2022-10-25T19:10:53.786Z,16.73
2022-10-25T19:12:56.767Z,22.00
2022-10-25T19:15:02.977Z,14.53
2022-10-25T19:17:06.069Z,15.47
2022-10-25T19:19:11.681Z,16.93
2022-10-25T19:21:17.090Z,15.27
2022-10-25T19:23:20.113Z,15.43
2022-10-25T19:25:24.025Z,17.00
2022-10-25T19:27:28.971Z,13.73
2022-10-25T19:29:33.290Z,9.10
2022-10-25T19:31:37.859Z,8.70
2022-10-25T19:33:41.207Z,9.70
2022-10-25T19:35:44.269Z,6.97
2022-10-25T19:37:48.030Z,9.70
2022-10-25T19:39:54.398Z,10.93
2022-10-25T19:42:00.281Z,11.63
2022-10-25T19:44:03.332Z,11.60
2022-10-25T19:46:07.880Z,12.40
2022-10-25T19:48:12.471Z,12.23
2022-10-25T19:50:15.520Z,11.03
2022-10-25T19:52:18.617Z,8.67
2022-10-25T19:54:22.743Z,11.57
2022-10-25T19:56:25.814Z,9.73
2022-10-25T19:58:29.496Z,12.90
2022-10-25T20:00:32.887Z,9.40
2022-10-25T20:02:36.205Z,10.97
2022-10-25T20:04:40.989Z,10.30
2022-10-25T20:06:44.232Z,13.50
2022-10-25T20:08:48.065Z,8.20
2022-10-25T20:10:52.121Z,11.43
2022-10-25T20:12:55.442Z,11.67
2022-10-25T20:14:58.765Z,12.30
2022-10-25T20:17:02.033Z,14.43
2022-10-25T20:19:05.439Z,12.37
2022-10-25T20:21:11.739Z,10.00
2022-10-25T20:23:14.925Z,8.13
2022-10-25T20:25:18.211Z,8.97
2022-10-25T20:27:21.277Z,8.80
2022-10-25T20:29:26.246Z,11.27
2022-10-25T20:31:33.072Z,11.77
2022-10-25T20:33:47.180Z,9.70
2022-10-25T20:36:06.875Z,11.57
2022-10-25T20:38:17.854Z,11.57
2022-10-25T20:40:26.143Z,12.93
2022-10-25T20:42:29.154Z,12.23
2022-10-25T20:44:32.191Z,7.97
2022-10-25T20:46:36.253Z,10.00
2022-10-25T20:48:39.280Z,23.57
2022-10-25T20:50:46.060Z,19.93
2022-10-25T20:53:09.206Z,15.00
2022-10-25T20:55:14.231Z,10.03
2022-10-25T20:57:17.238Z,11.67
2022-10-25T20:59:20.329Z,11.90
2022-10-25T21:01:23.440Z,9.03
2022-10-25T21:03:27.754Z,9.50
2022-10-25T21:05:31.509Z,8.73
2022-10-25T21:07:34.662Z,13.43
2022-10-25T21:09:37.708Z,8.73
2022-10-25T21:11:42.123Z,14.10
2022-10-25T21:13:45.232Z,12.80
2022-10-25T21:15:48.494Z,12.63
2022-10-25T21:17:51.683Z,11.27
2022-10-25T21:19:54.925Z,9.63
2022-10-25T21:21:58.134Z,11.53
2022-10-25T21:24:02.632Z,12.40
2022-10-25T21:26:07.675Z,7.43
2022-10-25T21:28:12.360Z,12.57
2022-10-25T21:30:15.797Z,11.17
2022-10-25T21:32:19.508Z,13.90
2022-10-25T21:34:22.534Z,9.70
2022-10-25T21:36:25.584Z,11.53
2022-10-25T21:38:28.533Z,12.83
2022-10-25T21:40:31.603Z,10.03
2022-10-25T21:42:34.868Z,7.80
2022-10-25T21:44:39.224Z,9.93
2022-10-25T21:46:42.632Z,12.67
2022-10-25T21:48:47.232Z,7.87
2022-10-25T21:50:55.042Z,8.80
2022-10-25T21:52:58.165Z,10.27
2022-10-25T21:55:01.363Z,10.20
2022-10-25T21:57:04.456Z,7.33
2022-10-25T21:59:07.728Z,11.50
2022-10-25T22:01:13.499Z,10.53
2022-10-25T22:03:16.788Z,9.67
2022-10-25T22:05:19.924Z,10.87
2022-10-25T22:07:23.391Z,9.50
2022-10-25T22:09:26.544Z,10.57
2022-10-25T22:11:31.967Z,10.37
2022-10-25T22:13:35.289Z,10.37
2022-10-25T22:15:38.306Z,10.63
2022-10-25T22:17:42.732Z,8.70
2022-10-25T22:19:45.690Z,9.93
2022-10-25T22:21:50.506Z,7.90
2022-10-25T22:23:53.666Z,10.80
2022-10-25T22:26:00.828Z,7.93
2022-10-25T22:28:03.860Z,7.40
2022-10-25T22:30:07.946Z,15.60
2022-10-25T22:32:10.892Z,10.53
2022-10-25T22:34:16.424Z,12.10
2022-10-25T22:36:21.595Z,10.70
2022-10-25T22:38:25.100Z,8.17
2022-10-25T22:40:28.124Z,7.50
2022-10-25T22:42:31.093Z,8.13
2022-10-25T22:44:34.067Z,10.50
2022-10-25T22:46:37.555Z,11.13
2022-10-25T22:48:42.220Z,9.10
2022-10-25T22:50:50.728Z,10.03
2022-10-25T22:52:53.802Z,9.87
2022-10-25T22:54:56.792Z,10.03
2022-10-25T22:56:59.819Z,12.37
2022-10-25T22:59:05.350Z,6.40
2022-10-25T23:01:10.403Z,6.90
2022-10-25T23:03:13.578Z,9.03
2022-10-25T23:05:16.732Z,9.30
2022-10-25T23:07:21.154Z,9.30
2022-10-25T23:09:24.222Z,7.70
2022-10-25T23:11:28.998Z,9.33
2022-10-25T23:13:32.959Z,12.13
2022-10-25T23:15:35.938Z,6.33
2022-10-25T23:17:39.011Z,6.83
2022-10-25T23:19:41.984Z,12.83
2022-10-25T23:21:45.090Z,8.80
2022-10-25T23:23:49.456Z,8.20
2022-10-25T23:25:52.965Z,6.50
2022-10-25T23:27:56.145Z,11.43
2022-10-25T23:29:59.137Z,10.23
2022-10-25T23:32:02.190Z,7.90
2022-10-25T23:34:05.167Z,8.57
2022-10-25T23:36:10.167Z,10.93
2022-10-25T23:38:13.677Z,8.17
2022-10-25T23:40:18.049Z,6.60
2022-10-25T23:42:21.155Z,10.93
2022-10-25T23:44:24.595Z,7.90
2022-10-25T23:46:27.628Z,10.07
2022-10-25T23:48:30.862Z,6.37
2022-10-25T23:50:33.972Z,9.83
2022-10-25T23:52:37.084Z,8.67
2022-10-25T23:54:40.041Z,11.77
2022-10-25T23:56:44.347Z,10.23
2022-10-25T23:58:50.365Z,11.33
